Time;durP1;ratioP1;P1;durP2;ratioP2;P2;SDS_P1;SDS_P2;PMS_P1;PMS_P2;Temp;Humidity;BMP_temperature;BMP_pressure;BME280_temperature;BME280_humidity;BME280_pressure;Samples;Min_cycle;Max_cycle;Signal;HPM_P1;HPM_P2
2021/09/04 00:01:13;;;;;;;14.77;12.43;;;;;;;;;;5034219;28;20496;-76
2021/09/04 00:03:39;;;;;;;17.00;12.50;;;;;;;;;;5034168;28;20903;-76
2021/09/04 00:06:05;;;;;;;14.60;11.80;;;;;;;;;;5034154;28;20391;-77
2021/09/04 00:08:31;;;;;;;14.30;12.23;;;;;;;;;;5033759;28;21202;-77
2021/09/04 00:10:57;;;;;;;12.07;10.80;;;;;;;;;;5033906;28;20405;-77
2021/09/04 00:13:23;;;;;;;13.53;12.07;;;;;;;;;;5034060;28;20376;-76
2021/09/04 00:15:49;;;;;;;13.40;10.73;;;;;;;;;;5033796;28;20897;-77
2021/09/04 00:18:15;;;;;;;13.80;11.77;;;;;;;;;;5033940;28;20413;-75
2021/09/04 00:20:41;;;;;;;12.83;10.53;;;;;;;;;;5033336;28;20404;-78
2021/09/04 00:23:07;;;;;;;14.50;11.67;;;;;;;;;;5034046;28;20398;-77
2021/09/04 00:25:33;;;;;;;16.10;11.77;;;;;;;;;;5033991;28;20776;-78
2021/09/04 00:27:59;;;;;;;12.80;11.50;;;;;;;;;;5033637;28;20548;-77
2021/09/04 00:30:25;;;;;;;22.30;12.00;;;;;;;;;;5033399;28;20776;-78
2021/09/04 00:32:51;;;;;;;21.37;12.67;;;;;;;;;;5016012;28;20392;-77
2021/09/04 00:35:17;;;;;;;19.40;13.50;;;;;;;;;;5033659;28;20463;-77
2021/09/04 00:37:43;;;;;;;16.00;11.13;;;;;;;;;;5033629;28;20398;-77
2021/09/04 00:40:10;;;;;;;12.93;11.67;;;;;;;;;;5033076;28;20431;-77
2021/09/04 00:42:36;;;;;;;15.00;11.67;;;;;;;;;;5033467;28;20379;-77
2021/09/04 00:45:02;;;;;;;14.97;11.90;;;;;;;;;;5033484;28;20391;-75
2021/09/04 00:47:28;;;;;;;14.77;13.03;;;;;;;;;;5033354;28;20455;-78
2021/09/04 00:49:54;;;;;;;15.03;13.40;;;;;;;;;;5033078;28;20520;-78
2021/09/04 00:52:20;;;;;;;13.87;11.80;;;;;;;;;;5015896;28;20444;-77
2021/09/04 00:54:47;;;;;;;14.27;12.77;;;;;;;;;;5033193;28;20436;-78
2021/09/04 00:57:13;;;;;;;14.97;12.40;;;;;;;;;;5033294;28;20412;-76
2021/09/04 00:59:39;;;;;;;14.97;12.60;;;;;;;;;;5032888;28;20437;-77
2021/09/04 01:02:05;;;;;;;13.63;12.20;;;;;;;;;;5033453;28;20439;-76
2021/09/04 01:04:32;;;;;;;15.30;13.70;;;;;;;;;;5015479;28;20424;-78
2021/09/04 01:06:58;;;;;;;19.73;13.63;;;;;;;;;;5033091;28;20459;-78
2021/09/04 01:09:24;;;;;;;16.50;13.90;;;;;;;;;;5032700;28;20428;-78
2021/09/04 01:11:50;;;;;;;13.10;11.67;;;;;;;;;;5015810;28;20491;-75
2021/09/04 01:14:16;;;;;;;13.73;10.50;;;;;;;;;;5033401;28;20488;-75
2021/09/04 01:16:43;;;;;;;15.83;11.80;;;;;;;;;;5033275;28;20440;-75
2021/09/04 01:19:09;;;;;;;13.77;11.27;;;;;;;;;;5033645;28;20403;-77
2021/09/04 01:21:36;;;;;;;15.23;12.03;;;;;;;;;;5037244;28;20390;-78
2021/09/04 01:24:06;;;;;;;19.80;12.67;;;;;;;;;;5037248;28;20413;-77
2021/09/04 01:26:32;;;;;;;16.87;12.43;;;;;;;;;;5037188;28;20496;-75
2021/09/04 01:28:59;;;;;;;14.00;11.60;;;;;;;;;;5036751;28;20408;-75
2021/09/04 01:31:26;;;;;;;16.90;11.73;;;;;;;;;;5036911;28;20470;-78
2021/09/04 01:33:52;;;;;;;19.20;12.73;;;;;;;;;;5036963;28;20876;-75
2021/09/04 01:36:31;;;;;;;19.13;13.80;;;;;;;;;;5037001;28;20424;-76
2021/09/04 01:38:58;;;;;;;14.00;12.20;;;;;;;;;;5036276;28;20893;-76
2021/09/04 01:41:24;;;;;;;15.77;12.23;;;;;;;;;;5036900;28;20412;-76
2021/09/04 01:43:50;;;;;;;13.40;11.30;;;;;;;;;;5036801;28;20422;-76
2021/09/04 01:46:16;;;;;;;16.00;11.70;;;;;;;;;;5036862;28;20401;-77
2021/09/04 01:48:42;;;;;;;22.50;13.50;;;;;;;;;;5036372;28;20464;-77
2021/09/04 01:51:08;;;;;;;16.60;13.57;;;;;;;;;;5036613;28;20383;-78
2021/09/04 01:53:34;;;;;;;19.50;13.73;;;;;;;;;;5037819;28;20749;-78
2021/09/04 01:56:00;;;;;;;19.13;11.93;;;;;;;;;;5018665;28;20503;-75
2021/09/04 01:58:26;;;;;;;15.40;11.43;;;;;;;;;;5036598;28;20406;-75
2021/09/04 02:00:52;;;;;;;13.63;12.10;;;;;;;;;;5036195;28;20439;-76
2021/09/04 02:03:18;;;;;;;17.33;11.93;;;;;;;;;;5036598;28;20416;-78
2021/09/04 02:05:45;;;;;;;14.83;12.00;;;;;;;;;;5036551;28;20421;-75
2021/09/04 02:08:11;;;;;;;15.90;12.77;;;;;;;;;;5036417;28;20439;-75
2021/09/04 02:10:37;;;;;;;18.40;12.80;;;;;;;;;;5036118;28;20494;-77
2021/09/04 02:13:03;;;;;;;14.37;12.07;;;;;;;;;;5036451;28;20415;-75
2021/09/04 02:15:29;;;;;;;15.40;12.40;;;;;;;;;;5036169;28;20409;-76
2021/09/04 02:17:55;;;;;;;16.60;12.33;;;;;;;;;;5036233;28;20412;-75
2021/09/04 02:20:21;;;;;;;15.63;12.83;;;;;;;;;;5035688;28;20432;-75
2021/09/04 02:22:47;;;;;;;16.00;14.07;;;;;;;;;;5036121;28;20906;-77
2021/09/04 02:25:13;;;;;;;16.80;12.40;;;;;;;;;;5036311;28;20898;-75
2021/09/04 02:27:39;;;;;;;19.17;14.43;;;;;;;;;;5036048;28;20452;-79
2021/09/04 02:30:06;;;;;;;21.73;13.30;;;;;;;;;;5035508;28;20431;-74
2021/09/04 02:32:33;;;;;;;19.40;14.03;;;;;;;;;;5036047;28;20383;-77
2021/09/04 02:34:59;;;;;;;20.70;13.50;;;;;;;;;;5035854;28;20529;-78
2021/09/04 02:37:25;;;;;;;17.37;13.23;;;;;;;;;;5035639;28;20463;-75
2021/09/04 02:39:51;;;;;;;16.70;13.20;;;;;;;;;;5035133;28;20842;-75
2021/09/04 02:42:17;;;;;;;18.60;14.30;;;;;;;;;;5018052;28;20452;-76
2021/09/04 02:44:44;;;;;;;14.87;12.70;;;;;;;;;;5035586;28;20424;-77
2021/09/04 02:47:10;;;;;;;16.90;13.40;;;;;;;;;;5035465;28;20435;-76
2021/09/04 02:49:36;;;;;;;17.30;11.97;;;;;;;;;;5034905;28;20459;-75
2021/09/04 02:52:02;;;;;;;14.73;13.23;;;;;;;;;;5035429;28;20440;-76
2021/09/04 02:54:28;;;;;;;15.40;13.03;;;;;;;;;;5035488;28;20435;-77
2021/09/04 02:56:54;;;;;;;17.20;12.23;;;;;;;;;;5035293;28;20409;-74
2021/09/04 02:59:20;;;;;;;17.13;13.30;;;;;;;;;;5034941;28;20786;-75
2021/09/04 03:01:46;;;;;;;15.87;12.23;;;;;;;;;;5017706;28;20413;-75
2021/09/04 03:04:11;;;;;;;15.77;12.03;;;;;;;;;;5035142;28;20405;-75
2021/09/04 03:06:37;;;;;;;16.47;12.60;;;;;;;;;;5035388;28;20409;-75
2021/09/04 03:09:03;;;;;;;17.33;12.60;;;;;;;;;;5034826;28;20909;-77
2021/09/04 03:11:29;;;;;;;17.07;13.33;;;;;;;;;;5035103;28;20409;-74
2021/09/04 03:13:55;;;;;;;16.60;13.60;;;;;;;;;;5035010;28;20455;-76
2021/09/04 03:16:21;;;;;;;20.27;13.83;;;;;;;;;;5035247;28;20460;-76
2021/09/04 03:18:47;;;;;;;21.93;13.03;;;;;;;;;;5034576;28;20417;-74
2021/09/04 03:21:13;;;;;;;17.03;14.17;;;;;;;;;;5035005;28;20932;-74
2021/09/04 03:23:39;;;;;;;16.07;13.90;;;;;;;;;;5017424;28;20440;-75
2021/09/04 03:26:06;;;;;;;19.93;14.30;;;;;;;;;;5034933;28;20914;-75
2021/09/04 03:28:32;;;;;;;15.80;13.17;;;;;;;;;;5034711;28;20869;-75
2021/09/04 03:30:58;;;;;;;13.87;12.37;;;;;;;;;;5034755;28;20455;-75
2021/09/04 03:33:24;;;;;;;17.00;14.00;;;;;;;;;;5034678;28;20760;-77
2021/09/04 03:35:50;;;;;;;18.87;14.33;;;;;;;;;;5034667;28;20501;-75
2021/09/04 03:38:16;;;;;;;19.63;14.13;;;;;;;;;;5034591;28;20424;-76
2021/09/04 03:40:42;;;;;;;17.67;14.20;;;;;;;;;;5034278;28;20452;-76
2021/09/04 03:43:08;;;;;;;21.63;15.23;;;;;;;;;;5034141;28;20390;-75
2021/09/04 03:45:35;;;;;;;18.80;14.80;;;;;;;;;;5034427;28;20554;-75
2021/09/04 03:48:01;;;;;;;18.90;14.67;;;;;;;;;;5034344;28;20798;-76
2021/09/04 03:50:27;;;;;;;18.83;13.00;;;;;;;;;;5034077;28;20437;-74
2021/09/04 03:52:53;;;;;;;17.30;14.33;;;;;;;;;;5034338;28;20543;-77
2021/09/04 03:55:19;;;;;;;17.73;13.73;;;;;;;;;;5034308;28;20508;-76
2021/09/04 03:57:45;;;;;;;19.53;15.10;;;;;;;;;;5034243;28;20499;-75
2021/09/04 04:00:11;;;;;;;19.50;15.10;;;;;;;;;;5033689;28;20518;-77
2021/09/04 04:02:37;;;;;;;22.03;15.87;;;;;;;;;;5034403;28;20523;-76
2021/09/04 04:05:03;;;;;;;21.90;15.53;;;;;;;;;;5034250;28;20409;-74
2021/09/04 04:07:29;;;;;;;23.87;17.57;;;;;;;;;;5034231;28;20586;-74
2021/09/04 04:09:55;;;;;;;22.13;15.40;;;;;;;;;;5033758;28;20433;-76
2021/09/04 04:12:21;;;;;;;17.30;14.23;;;;;;;;;;5034098;28;20508;-76
2021/09/04 04:14:47;;;;;;;21.40;16.17;;;;;;;;;;5033975;28;20794;-77
2021/09/04 04:17:13;;;;;;;21.63;15.83;;;;;;;;;;5033914;28;20417;-76
2021/09/04 04:19:39;;;;;;;20.53;15.97;;;;;;;;;;5033455;28;20815;-77
2021/09/04 04:22:05;;;;;;;22.63;16.50;;;;;;;;;;5033883;28;20421;-75
2021/09/04 04:24:31;;;;;;;20.90;16.10;;;;;;;;;;5033678;28;20752;-77
2021/09/04 04:26:57;;;;;;;16.97;14.07;;;;;;;;;;5033729;28;20457;-76
2021/09/04 04:29:23;;;;;;;18.70;14.73;;;;;;;;;;5033321;28;20428;-77
2021/09/04 04:31:49;;;;;;;19.77;14.43;;;;;;;;;;5033748;28;20937;-75
2021/09/04 04:34:15;;;;;;;23.27;14.87;;;;;;;;;;5033744;28;20500;-75
2021/09/04 04:36:41;;;;;;;17.83;14.57;;;;;;;;;;5016230;28;20417;-76
2021/09/04 04:39:07;;;;;;;17.37;14.57;;;;;;;;;;5015712;28;20841;-76
2021/09/04 04:41:33;;;;;;;15.40;13.80;;;;;;;;;;5033743;28;20416;-77
2021/09/04 04:44:00;;;;;;;15.60;12.90;;;;;;;;;;5033369;28;20891;-76
2021/09/04 04:46:26;;;;;;;18.50;14.03;;;;;;;;;;5033407;28;20439;-77
2021/09/04 04:48:52;;;;;;;17.10;13.97;;;;;;;;;;5032893;28;20476;-77
2021/09/04 04:51:18;;;;;;;17.90;13.33;;;;;;;;;;5033386;28;20866;-75
2021/09/04 04:53:44;;;;;;;15.63;14.03;;;;;;;;;;5032457;28;20413;-77
2021/09/04 04:56:10;;;;;;;20.13;15.40;;;;;;;;;;5033255;28;20409;-77
2021/09/04 04:58:36;;;;;;;18.40;15.43;;;;;;;;;;5015030;28;20427;-75
2021/09/04 05:01:02;;;;;;;22.47;15.27;;;;;;;;;;5033127;28;20436;-75
2021/09/04 05:03:28;;;;;;;18.50;15.33;;;;;;;;;;5033235;28;20424;-76
2021/09/04 05:05:54;;;;;;;20.63;16.33;;;;;;;;;;5033220;28;20834;-76
2021/09/04 05:08:20;;;;;;;17.63;14.90;;;;;;;;;;5033128;28;20484;-77
2021/09/04 05:10:46;;;;;;;27.30;16.13;;;;;;;;;;5032699;28;21008;-75
2021/09/04 05:13:13;;;;;;;24.53;15.70;;;;;;;;;;5033176;28;20500;-75
2021/09/04 05:15:39;;;;;;;20.00;14.93;;;;;;;;;;5033081;28;20409;-76
2021/09/04 05:18:05;;;;;;;17.53;14.33;;;;;;;;;;5033182;28;20496;-75
2021/09/04 05:20:31;;;;;;;20.33;16.80;;;;;;;;;;5032895;28;20575;-75
2021/09/04 05:22:57;;;;;;;21.80;15.50;;;;;;;;;;5033215;28;20456;-76
2021/09/04 05:25:22;;;;;;;17.57;14.53;;;;;;;;;;5015825;28;20413;-76
2021/09/04 05:27:48;;;;;;;21.40;15.40;;;;;;;;;;5033173;28;20861;-75
2021/09/04 05:30:14;;;;;;;18.73;14.70;;;;;;;;;;5034384;28;20447;-76
2021/09/04 05:32:40;;;;;;;20.70;15.63;;;;;;;;;;5032920;28;20413;-75
2021/09/04 05:35:07;;;;;;;21.30;16.43;;;;;;;;;;5032908;28;20409;-76
2021/09/04 05:37:33;;;;;;;17.73;15.43;;;;;;;;;;5033002;28;20409;-76
2021/09/04 05:39:59;;;;;;;20.70;16.40;;;;;;;;;;5032462;28;20452;-76
2021/09/04 05:42:25;;;;;;;28.60;16.97;;;;;;;;;;5032795;28;20890;-75
2021/09/04 05:44:51;;;;;;;19.10;15.80;;;;;;;;;;5032823;28;20440;-78
2021/09/04 05:47:17;;;;;;;25.43;18.27;;;;;;;;;;5032778;28;20514;-75
2021/09/04 05:49:43;;;;;;;23.00;17.60;;;;;;;;;;5032481;28;20432;-76
2021/09/04 05:52:09;;;;;;;28.90;19.87;;;;;;;;;;5032889;28;20409;-76
2021/09/04 05:54:35;;;;;;;26.50;19.63;;;;;;;;;;5032788;28;20405;-76
2021/09/04 05:57:01;;;;;;;23.37;18.70;;;;;;;;;;5032508;28;20416;-74
2021/09/04 05:59:27;;;;;;;28.30;22.07;;;;;;;;;;5014571;28;20452;-76
2021/09/04 06:01:53;;;;;;;29.43;22.73;;;;;;;;;;5032770;28;20770;-75
2021/09/04 06:04:19;;;;;;;29.73;22.27;;;;;;;;;;5032689;28;20877;-74
2021/09/04 06:06:45;;;;;;;31.00;20.33;;;;;;;;;;5035831;28;20424;-76
2021/09/04 06:09:11;;;;;;;28.57;17.97;;;;;;;;;;5035717;28;20835;-77
2021/09/04 06:11:37;;;;;;;31.10;22.10;;;;;;;;;;5036293;28;20444;-75
2021/09/04 06:14:03;;;;;;;22.53;17.80;;;;;;;;;;5036442;28;20401;-77
2021/09/04 06:16:29;;;;;;;27.70;19.80;;;;;;;;;;5036331;28;20412;-76
2021/09/04 06:18:55;;;;;;;27.50;20.90;;;;;;;;;;5035798;28;20778;-76
2021/09/04 06:21:21;;;;;;;25.20;19.33;;;;;;;;;;5035993;28;20423;-75
2021/09/04 06:23:47;;;;;;;24.30;19.10;;;;;;;;;;5018401;28;20403;-75
2021/09/04 06:26:13;;;;;;;28.00;20.97;;;;;;;;;;5035985;28;20424;-74
2021/09/04 06:28:39;;;;;;;29.00;21.97;;;;;;;;;;5035683;28;20464;-76
2021/09/04 06:31:05;;;;;;;25.80;19.70;;;;;;;;;;5035783;28;20797;-74
2021/09/04 06:33:31;;;;;;;26.93;20.23;;;;;;;;;;5035615;28;20413;-76
2021/09/04 06:35:56;;;;;;;25.27;19.33;;;;;;;;;;5036011;28;20881;-75
2021/09/04 06:38:23;;;;;;;27.33;20.00;;;;;;;;;;5035931;28;20427;-75
2021/09/04 06:40:49;;;;;;;27.37;22.07;;;;;;;;;;5035119;28;20429;-76
2021/09/04 06:43:15;;;;;;;25.33;20.70;;;;;;;;;;5035598;28;20404;-76
2021/09/04 06:45:40;;;;;;;28.30;21.63;;;;;;;;;;5035681;28;20517;-76
2021/09/04 06:48:07;;;;;;;26.00;22.17;;;;;;;;;;5017820;28;20475;-74
2021/09/04 06:50:34;;;;;;;29.03;22.47;;;;;;;;;;5035217;28;20429;-77
2021/09/04 06:53:01;;;;;;;28.67;23.60;;;;;;;;;;5035553;28;20744;-76
2021/09/04 06:55:27;;;;;;;29.93;21.83;;;;;;;;;;5035309;28;20478;-75
2021/09/04 06:57:53;;;;;;;30.13;21.07;;;;;;;;;;5035331;28;20778;-77
2021/09/04 07:00:20;;;;;;;30.53;22.20;;;;;;;;;;5034932;28;20443;-74
2021/09/04 07:02:46;;;;;;;27.03;22.03;;;;;;;;;;5035302;28;20439;-75
2021/09/04 07:05:12;;;;;;;29.40;21.10;;;;;;;;;;5035111;28;20402;-75
2021/09/04 07:07:38;;;;;;;25.10;19.90;;;;;;;;;;5034950;28;20499;-76
2021/09/04 07:10:04;;;;;;;24.87;20.10;;;;;;;;;;5034832;28;20918;-75
2021/09/04 07:12:30;;;;;;;30.97;19.47;;;;;;;;;;5035205;28;20431;-76
2021/09/04 07:14:56;;;;;;;27.03;19.67;;;;;;;;;;5034954;28;20882;-77
2021/09/04 07:17:22;;;;;;;23.90;19.40;;;;;;;;;;5034122;28;20424;-75
2021/09/04 07:19:48;;;;;;;28.30;21.47;;;;;;;;;;5034492;28;20555;-75
2021/09/04 07:22:14;;;;;;;27.90;21.90;;;;;;;;;;5017278;28;20500;-76
2021/09/04 07:24:40;;;;;;;24.70;20.73;;;;;;;;;;5035079;28;20942;-76
2021/09/04 07:27:06;;;;;;;27.87;21.43;;;;;;;;;;5034783;28;20569;-76
2021/09/04 07:29:32;;;;;;;23.23;19.90;;;;;;;;;;5034334;28;20500;-76
2021/09/04 07:31:58;;;;;;;29.83;22.07;;;;;;;;;;5034746;28;20392;-77
2021/09/04 07:34:24;;;;;;;25.50;21.50;;;;;;;;;;5017164;28;20425;-75
2021/09/04 07:36:50;;;;;;;28.33;22.00;;;;;;;;;;5034872;28;20433;-75
2021/09/04 07:39:16;;;;;;;31.33;24.30;;;;;;;;;;5016407;28;20950;-76
2021/09/04 07:41:42;;;;;;;26.93;21.97;;;;;;;;;;5034556;28;20419;-75
2021/09/04 07:44:08;;;;;;;27.93;23.40;;;;;;;;;;5016696;28;20417;-76
2021/09/04 07:46:34;;;;;;;31.40;23.87;;;;;;;;;;5034515;28;20429;-77
2021/09/04 07:49:00;;;;;;;25.03;20.43;;;;;;;;;;5033792;28;20464;-75
2021/09/04 07:51:26;;;;;;;28.63;21.10;;;;;;;;;;5016665;28;20417;-76
2021/09/04 07:53:52;;;;;;;35.20;22.87;;;;;;;;;;5034264;28;20889;-75
2021/09/04 07:56:18;;;;;;;29.40;20.80;;;;;;;;;;5034131;28;20420;-74
2021/09/04 07:58:44;;;;;;;31.30;22.83;;;;;;;;;;5033765;28;20413;-76
2021/09/04 08:01:10;;;;;;;28.63;20.63;;;;;;;;;;5034135;28;20793;-77
2021/09/04 08:03:36;;;;;;;28.70;20.53;;;;;;;;;;5033983;28;20424;-77
2021/09/04 08:06:02;;;;;;;38.03;22.23;;;;;;;;;;5016339;28;20490;-77
2021/09/04 08:08:28;;;;;;;23.77;18.87;;;;;;;;;;5033811;28;20469;-77
2021/09/04 08:10:55;;;;;;;25.30;20.30;;;;;;;;;;5033672;28;20912;-75
2021/09/04 08:13:21;;;;;;;28.27;18.00;;;;;;;;;;5033889;28;20384;-76
2021/09/04 08:15:48;;;;;;;27.30;18.67;;;;;;;;;;5034167;28;20441;-75
2021/09/04 08:18:14;;;;;;;20.83;15.53;;;;;;;;;;5033732;28;20436;-75
2021/09/04 08:20:41;;;;;;;19.60;15.87;;;;;;;;;;5033246;28;21013;-75
2021/09/04 08:23:07;;;;;;;21.13;15.40;;;;;;;;;;5033729;28;20730;-76
2021/09/04 08:25:34;;;;;;;17.97;15.90;;;;;;;;;;5033585;28;20388;-75
2021/09/04 08:28:00;;;;;;;19.20;16.10;;;;;;;;;;5033335;28;20576;-76
2021/09/04 08:30:26;;;;;;;20.90;15.93;;;;;;;;;;5033069;28;20515;-75
2021/09/04 08:32:52;;;;;;;18.47;15.00;;;;;;;;;;5015887;28;20966;-76
2021/09/04 08:35:18;;;;;;;15.80;13.33;;;;;;;;;;5033510;28;20445;-75
2021/09/04 08:37:44;;;;;;;15.30;13.30;;;;;;;;;;5033492;28;20412;-75
2021/09/04 08:40:11;;;;;;;18.17;14.10;;;;;;;;;;5032801;28;20460;-75
2021/09/04 08:42:37;;;;;;;15.47;13.87;;;;;;;;;;5015922;28;20421;-75
2021/09/04 08:45:03;;;;;;;17.13;15.23;;;;;;;;;;5033466;28;20417;-75
2021/09/04 08:47:31;;;;;;;18.13;15.83;;;;;;;;;;5033377;28;20464;-74
2021/09/04 08:49:57;;;;;;;15.03;13.47;;;;;;;;;;5033158;28;20475;-74
2021/09/04 08:52:23;;;;;;;22.27;16.00;;;;;;;;;;5033223;28;20413;-75
2021/09/04 08:54:49;;;;;;;21.77;19.40;;;;;;;;;;5033351;28;20405;-75
2021/09/04 08:57:15;;;;;;;17.63;15.83;;;;;;;;;;5034030;28;20401;-74
2021/09/04 08:59:41;;;;;;;20.23;16.27;;;;;;;;;;5033308;28;20428;-75
2021/09/04 09:02:13;;;;;;;21.03;17.80;;;;;;;;;;5033112;28;20431;-75
2021/09/04 09:04:40;;;;;;;25.20;18.70;;;;;;;;;;5033085;28;20401;-75
2021/09/04 09:07:07;;;;;;;22.80;19.80;;;;;;;;;;5033018;28;20502;-74
2021/09/04 09:09:35;;;;;;;26.80;19.70;;;;;;;;;;5014898;28;20449;-75
2021/09/04 09:12:01;;;;;;;26.47;20.30;;;;;;;;;;5033112;28;20455;-75
2021/09/04 09:14:28;;;;;;;20.40;17.83;;;;;;;;;;5033059;28;20824;-75
2021/09/04 09:16:54;;;;;;;23.23;18.93;;;;;;;;;;5033280;28;20424;-75
2021/09/04 09:19:21;;;;;;;23.47;19.00;;;;;;;;;;5032813;28;20421;-76
2021/09/04 09:21:47;;;;;;;20.73;18.53;;;;;;;;;;5033006;28;20409;-76
2021/09/04 09:24:15;;;;;;;22.23;17.90;;;;;;;;;;5032992;28;20405;-75
2021/09/04 09:26:48;;;;;;;21.90;19.60;;;;;;;;;;5032953;28;20488;-75
2021/09/04 09:29:15;;;;;;;28.50;19.73;;;;;;;;;;5032665;28;20437;-75
2021/09/04 09:31:41;;;;;;;22.17;19.77;;;;;;;;;;5033131;28;20439;-75
2021/09/04 09:34:10;;;;;;;23.93;20.90;;;;;;;;;;5033174;28;20397;-76
2021/09/04 09:36:56;;;;;;;23.60;20.53;;;;;;;;;;5032893;28;20899;-75
2021/09/04 09:39:32;;;;;;;22.33;19.23;;;;;;;;;;5014648;28;20535;-74
2021/09/04 09:41:58;;;;;;;26.73;19.23;;;;;;;;;;5036751;28;20429;-76
2021/09/04 09:44:26;;;;;;;25.27;18.70;;;;;;;;;;5036556;28;20463;-74
2021/09/04 09:46:56;;;;;;;21.70;18.20;;;;;;;;;;5036227;28;20431;-75
2021/09/04 09:49:27;;;;;;;22.03;18.60;;;;;;;;;;5036030;28;20518;-75
2021/09/04 09:51:56;;;;;;;22.87;18.93;;;;;;;;;;5036489;28;20475;-74
2021/09/04 09:54:24;;;;;;;24.20;20.27;;;;;;;;;;5036361;28;20409;-77
2021/09/04 09:56:50;;;;;;;20.73;18.50;;;;;;;;;;5036317;28;20405;-74
2021/09/04 09:59:17;;;;;;;20.90;18.17;;;;;;;;;;5036048;28;20433;-75
2021/09/04 10:01:43;;;;;;;22.53;18.73;;;;;;;;;;5036552;28;20488;-77
2021/09/04 10:04:10;;;;;;;21.70;18.50;;;;;;;;;;5036400;28;20425;-76
2021/09/04 10:06:36;;;;;;;22.37;18.90;;;;;;;;;;5036160;28;20794;-75
2021/09/04 10:09:02;;;;;;;21.70;18.47;;;;;;;;;;5035193;28;20472;-75
2021/09/04 10:11:29;;;;;;;21.30;18.57;;;;;;;;;;5035932;28;20415;-77
2021/09/04 10:13:55;;;;;;;20.50;18.30;;;;;;;;;;5036048;28;20413;-78
2021/09/04 10:16:21;;;;;;;19.60;17.60;;;;;;;;;;5036192;28;20492;-75
2021/09/04 10:18:47;;;;;;;22.23;19.93;;;;;;;;;;5035716;28;20417;-75
2021/09/04 10:21:14;;;;;;;19.23;17.20;;;;;;;;;;5035869;28;20414;-76
2021/09/04 10:23:41;;;;;;;19.37;17.27;;;;;;;;;;5035993;28;20409;-77
2021/09/04 10:26:26;;;;;;;17.33;15.63;;;;;;;;;;5036008;28;20400;-77
2021/09/04 10:29:01;;;;;;;18.70;16.73;;;;;;;;;;5035571;28;21547;-77
2021/09/04 10:31:48;;;;;;;19.10;17.10;;;;;;;;;;5035781;28;21300;-76
2021/09/04 10:34:17;;;;;;;20.67;17.83;;;;;;;;;;5035907;28;20421;-75
2021/09/04 10:37:06;;;;;;;20.37;17.93;;;;;;;;;;5035958;28;20514;-74
2021/09/04 10:39:51;;;;;;;20.20;18.07;;;;;;;;;;5029762;28;20461;-75
2021/09/04 10:42:19;;;;;;;22.50;19.50;;;;;;;;;;5035606;28;20402;-76
2021/09/04 10:44:46;;;;;;;28.93;25.90;;;;;;;;;;5035568;28;20408;-76
2021/09/04 10:47:12;;;;;;;21.17;19.03;;;;;;;;;;5035513;28;20502;-75
2021/09/04 10:49:40;;;;;;;18.80;16.90;;;;;;;;;;5035075;28;20420;-75
2021/09/04 10:52:06;;;;;;;18.00;16.13;;;;;;;;;;5016867;28;20770;-77
2021/09/04 10:54:51;;;;;;;22.47;19.17;;;;;;;;;;5034977;28;20417;-76
2021/09/04 10:57:18;;;;;;;20.63;18.53;;;;;;;;;;5034349;28;20756;-75
2021/09/04 10:59:58;;;;;;;25.90;22.47;;;;;;;;;;5034628;28;20483;-77
2021/09/04 11:02:38;;;;;;;20.97;18.97;;;;;;;;;;5035253;28;20459;-76
2021/09/04 11:05:23;;;;;;;20.33;18.30;;;;;;;;;;5035366;28;20969;-77
2021/09/04 11:07:49;;;;;;;21.47;17.90;;;;;;;;;;5035153;28;20499;-74
2021/09/04 11:10:24;;;;;;;21.10;18.40;;;;;;;;;;5034780;28;20429;-75
2021/09/04 11:13:11;;;;;;;20.30;18.10;;;;;;;;;;5035139;28;20416;-75
2021/09/04 11:15:37;;;;;;;20.73;18.63;;;;;;;;;;5027614;28;20417;-77
2021/09/04 11:18:03;;;;;;;19.33;17.33;;;;;;;;;;5035156;28;20405;-75
2021/09/04 11:20:29;;;;;;;18.27;16.37;;;;;;;;;;5034676;28;20478;-77
2021/09/04 11:22:55;;;;;;;20.17;17.73;;;;;;;;;;5035109;28;20484;-77
2021/09/04 11:25:21;;;;;;;19.40;17.50;;;;;;;;;;5035069;28;20409;-77
2021/09/04 11:27:47;;;;;;;18.97;17.00;;;;;;;;;;5034911;28;20464;-77
2021/09/04 11:30:17;;;;;;;22.27;18.53;;;;;;;;;;5034603;28;20528;-76
2021/09/04 11:32:44;;;;;;;22.23;17.30;;;;;;;;;;5034673;28;20907;-76
2021/09/04 11:35:11;;;;;;;19.80;17.70;;;;;;;;;;5035077;28;20882;-78
2021/09/04 11:37:41;;;;;;;20.03;17.87;;;;;;;;;;5034864;28;20405;-78
2021/09/04 11:40:09;;;;;;;20.80;18.63;;;;;;;;;;5034221;28;20461;-77
2021/09/04 11:42:42;;;;;;;22.17;18.40;;;;;;;;;;5034838;28;20492;-75
2021/09/04 11:45:12;;;;;;;20.57;18.27;;;;;;;;;;5034485;28;20481;-77
2021/09/04 11:47:39;;;;;;;21.27;19.07;;;;;;;;;;5041399;28;20891;-77
2021/09/04 11:50:07;;;;;;;21.90;19.33;;;;;;;;;;5042660;28;20845;-76
2021/09/04 11:52:35;;;;;;;20.27;18.07;;;;;;;;;;5044402;28;20735;-77
2021/09/04 11:55:08;;;;;;;18.97;16.97;;;;;;;;;;5034071;28;20448;-76
2021/09/04 11:57:36;;;;;;;20.50;18.27;;;;;;;;;;5041410;28;20447;-77
2021/09/04 12:00:21;;;;;;;21.17;19.00;;;;;;;;;;5042445;28;20527;-74
2021/09/04 12:02:47;;;;;;;18.93;17.00;;;;;;;;;;5044461;28;20405;-76
2021/09/04 12:05:13;;;;;;;19.60;16.80;;;;;;;;;;5044048;28;20417;-75
2021/09/04 12:07:40;;;;;;;21.07;18.77;;;;;;;;;;5043975;28;20507;-77
2021/09/04 12:10:07;;;;;;;19.50;17.40;;;;;;;;;;5041947;28;20495;-76
2021/09/04 12:12:33;;;;;;;19.40;17.30;;;;;;;;;;5022403;28;20423;-77
2021/09/04 12:15:00;;;;;;;18.47;16.33;;;;;;;;;;5033230;28;20405;-76
2021/09/04 12:17:26;;;;;;;21.80;18.40;;;;;;;;;;5032851;28;20409;-76
2021/09/04 12:19:53;;;;;;;18.80;16.80;;;;;;;;;;5036200;28;20440;-75
2021/09/04 12:22:19;;;;;;;18.10;16.20;;;;;;;;;;5033666;28;20409;-75
2021/09/04 12:24:45;;;;;;;18.27;16.40;;;;;;;;;;5034293;28;20466;-76
2021/09/04 12:27:11;;;;;;;17.47;15.67;;;;;;;;;;5033821;28;20460;-75
2021/09/04 12:29:37;;;;;;;18.20;15.70;;;;;;;;;;5033399;28;20863;-77
2021/09/04 12:32:11;;;;;;;16.97;15.30;;;;;;;;;;5033716;28;20471;-77
2021/09/04 12:34:38;;;;;;;18.83;16.63;;;;;;;;;;5016186;28;20508;-77
2021/09/04 12:37:23;;;;;;;20.93;16.93;;;;;;;;;;5033561;28;20409;-74
2021/09/04 12:39:49;;;;;;;17.37;15.57;;;;;;;;;;5033249;28;20518;-75
2021/09/04 12:42:14;;;;;;;16.60;14.97;;;;;;;;;;5033381;28;20444;-76
2021/09/04 12:44:42;;;;;;;16.63;14.83;;;;;;;;;;5033588;28;20409;-74
2021/09/04 12:47:08;;;;;;;19.40;17.43;;;;;;;;;;5033085;28;20444;-75
2021/09/04 12:49:38;;;;;;;17.60;15.77;;;;;;;;;;5014542;28;20942;-76
2021/09/04 12:52:13;;;;;;;18.27;16.33;;;;;;;;;;5031395;28;20894;-75
2021/09/04 12:54:40;;;;;;;19.57;17.57;;;;;;;;;;5032744;28;20408;-75
2021/09/04 12:57:12;;;;;;;20.07;18.07;;;;;;;;;;5033243;28;20409;-77
2021/09/04 13:00:04;;;;;;;19.73;17.47;;;;;;;;;;5032070;28;20429;-76
2021/09/04 13:02:36;;;;;;;19.47;17.47;;;;;;;;;;5032223;28;20426;-78
2021/09/04 13:05:06;;;;;;;21.20;19.00;;;;;;;;;;5033168;28;20511;-75
2021/09/04 13:07:39;;;;;;;20.40;18.37;;;;;;;;;;5033156;28;20492;-76
2021/09/04 13:10:06;;;;;;;20.27;17.67;;;;;;;;;;5032734;28;20437;-75
2021/09/04 13:12:31;;;;;;;19.13;17.13;;;;;;;;;;5033006;28;20453;-76
2021/09/04 13:14:57;;;;;;;19.43;16.60;;;;;;;;;;5032069;28;20940;-78
2021/09/04 13:17:23;;;;;;;18.47;16.57;;;;;;;;;;5033169;28;20417;-76
2021/09/04 13:19:49;;;;;;;19.60;17.67;;;;;;;;;;5032833;28;20790;-76
2021/09/04 13:22:15;;;;;;;19.53;15.80;;;;;;;;;;5033156;28;20463;-76
2021/09/04 13:24:41;;;;;;;18.70;15.80;;;;;;;;;;5033157;28;20440;-74
2021/09/04 13:27:08;;;;;;;17.13;15.30;;;;;;;;;;5032971;28;20436;-75
2021/09/04 13:29:34;;;;;;;17.93;16.00;;;;;;;;;;5032742;28;20433;-77
2021/09/04 13:32:00;;;;;;;18.90;16.67;;;;;;;;;;5033099;28;20408;-76
2021/09/04 13:34:26;;;;;;;19.57;17.47;;;;;;;;;;5032912;28;20420;-76
2021/09/04 13:36:53;;;;;;;17.17;15.37;;;;;;;;;;5032926;28;20754;-76
2021/09/04 13:39:20;;;;;;;16.30;14.70;;;;;;;;;;5032457;28;20452;-76
2021/09/04 13:41:46;;;;;;;17.30;15.50;;;;;;;;;;5033231;28;20878;-75
2021/09/04 13:44:12;;;;;;;18.90;15.77;;;;;;;;;;5033126;28;20489;-74
2021/09/04 13:46:38;;;;;;;19.70;17.70;;;;;;;;;;5032743;28;20416;-76
2021/09/04 13:49:04;;;;;;;18.20;16.50;;;;;;;;;;5032627;28;20969;-76
2021/09/04 13:51:30;;;;;;;19.20;15.40;;;;;;;;;;5032943;28;20413;-74
2021/09/04 13:53:56;;;;;;;17.70;15.90;;;;;;;;;;5032756;28;20413;-75
2021/09/04 13:56:22;;;;;;;17.90;15.80;;;;;;;;;;5032814;28;20498;-77
2021/09/04 13:58:48;;;;;;;17.27;14.27;;;;;;;;;;5032244;28;20769;-76
2021/09/04 14:01:14;;;;;;;20.53;15.80;;;;;;;;;;5032728;28;20441;-74
2021/09/04 14:03:40;;;;;;;15.30;13.40;;;;;;;;;;5032563;28;20909;-76
2021/09/04 14:06:06;;;;;;;16.93;15.20;;;;;;;;;;5032702;28;20466;-77
2021/09/04 14:08:32;;;;;;;15.77;13.37;;;;;;;;;;5032425;28;20822;-75
2021/09/04 14:10:58;;;;;;;16.87;14.03;;;;;;;;;;5032325;28;20436;-74
2021/09/04 14:13:24;;;;;;;16.40;14.70;;;;;;;;;;5032536;28;20420;-76
2021/09/04 14:15:50;;;;;;;20.57;14.67;;;;;;;;;;5032592;28;20484;-76